Time;durP1;ratioP1;P1;durP2;ratioP2;P2;SDS_P1;SDS_P2;PMS_P1;PMS_P2;Temp;Humidity;BMP_temperature;BMP_pressure;BME280_temperature;BME280_humidity;BME280_pressure;Samples;Min_cycle;Max_cycle;Signal;HPM_P1;HPM_P2
2022/04/19 00:00:23;;;;;;;2.88;2.30;;;;;;;5.56;78.58;95564.06;5074227;28;24425;-71
2022/04/19 00:02:50;;;;;;;2.08;1.80;;;;;;;5.59;78.47;95567.34;5073535;28;24441;-71
2022/04/19 00:05:16;;;;;;;3.78;2.03;;;;;;;5.58;77.78;95562.28;5073611;28;24493;-71
2022/04/19 00:07:44;;;;;;;6.90;2.42;;;;;;;5.56;76.90;95564.94;5073616;28;24426;-71
2022/04/19 00:10:11;;;;;;;3.60;2.45;;;;;;;5.41;77.85;95555.34;5073603;28;24785;-71
2022/04/19 00:12:37;;;;;;;2.75;2.00;;;;;;;5.28;78.02;95554.25;5073384;28;24511;-71
2022/04/19 00:15:06;;;;;;;3.03;2.30;;;;;;;5.11;79.79;95560.13;5073225;28;24453;-71
2022/04/19 00:17:33;;;;;;;2.35;2.08;;;;;;;5.05;79.63;95556.13;5073573;28;24531;-71
2022/04/19 00:20:00;;;;;;;3.22;2.05;;;;;;;5.07;79.73;95554.28;5073739;28;24456;-71
2022/04/19 00:22:27;;;;;;;4.15;2.13;;;;;;;4.96;80.03;95551.38;5073380;28;24418;-72
2022/04/19 00:24:54;;;;;;;3.03;2.28;;;;;;;4.97;80.31;95550.50;5073471;28;24509;-72
2022/04/19 00:27:20;;;;;;;3.45;2.03;;;;;;;4.99;80.29;95545.28;5073692;28;24430;-72
2022/04/19 00:29:47;;;;;;;3.33;2.38;;;;;;;4.92;80.95;95549.03;5073637;28;24476;-72
2022/04/19 00:32:15;;;;;;;3.08;2.45;;;;;;;4.88;81.16;95540.63;5073696;28;24452;-72
2022/04/19 00:34:41;;;;;;;4.63;2.30;;;;;;;4.83;81.46;95537.44;5073480;28;25033;-72
2022/04/19 00:37:08;;;;;;;2.40;2.08;;;;;;;4.76;82.66;95533.47;5073155;28;24426;-70
2022/04/19 00:39:34;;;;;;;4.15;2.15;;;;;;;4.80;82.30;95535.00;5073251;28;24426;-72
2022/04/19 00:42:01;;;;;;;2.55;2.20;;;;;;;4.86;81.29;95534.75;5072437;28;25061;-71
2022/04/19 00:44:27;;;;;;;3.70;2.20;;;;;;;4.85;81.29;95528.75;5073292;28;24419;-71
2022/04/19 00:46:54;;;;;;;2.90;2.10;;;;;;;4.92;80.27;95528.50;5073031;28;24468;-71
2022/04/19 00:49:22;;;;;;;5.43;2.30;;;;;;;4.92;80.08;95525.91;5072977;28;24518;-71
2022/04/19 00:51:48;;;;;;;3.17;2.17;;;;;;;4.85;80.12;95526.19;5072821;28;24422;-71
2022/04/19 00:54:17;;;;;;;3.45;2.28;;;;;;;4.72;80.23;95522.50;5072900;28;24414;-71
2022/04/19 00:56:44;;;;;;;2.75;2.15;;;;;;;4.44;83.50;95515.16;5072793;28;24446;-72
2022/04/19 00:59:11;;;;;;;2.75;2.35;;;;;;;4.43;83.29;95516.06;5072885;28;24415;-71
2022/04/19 01:01:38;;;;;;;2.47;2.10;;;;;;;4.43;83.15;95513.50;5072742;28;24512;-72
2022/04/19 01:04:05;;;;;;;2.50;1.80;;;;;;;4.43;83.16;95512.69;5072831;28;24419;-71
2022/04/19 01:06:32;;;;;;;2.97;2.17;;;;;;;4.46;83.20;95510.81;5072541;28;24780;-72
2022/04/19 01:08:59;;;;;;;3.67;1.85;;;;;;;4.46;83.02;95513.38;5072537;28;24822;-71
2022/04/19 01:14:10;;;;;;;2.47;2.10;;;;;;;4.27;84.22;95509.94;5072653;28;24552;-71
2022/04/19 01:16:37;;;;;;;3.17;2.00;;;;;;;4.28;84.45;95509.84;5072447;28;24501;-72
2022/04/19 01:19:06;;;;;;;3.10;2.10;;;;;;;4.31;83.81;95508.91;5072626;28;24437;-71
2022/04/19 01:21:44;;;;;;;2.75;1.98;;;;;;;4.26;84.20;95503.94;5071866;28;24939;-72
2022/04/19 01:24:14;;;;;;;2.88;2.17;;;;;;;4.23;84.08;95503.28;5072479;28;24415;-71
2022/04/19 01:26:41;;;;;;;1.90;1.65;;;;;;;4.20;85.00;95499.09;5072254;28;24788;-72
2022/04/19 01:29:07;;;;;;;8.80;2.13;;;;;;;4.22;85.44;95506.72;5072310;28;24982;-71
2022/04/19 01:31:34;;;;;;;2.13;1.80;;;;;;;4.13;86.97;95506.22;5071865;28;24411;-71
2022/04/19 01:34:01;;;;;;;8.63;2.00;;;;;;;4.13;86.92;95498.53;5072138;28;24796;-71
2022/04/19 01:36:27;;;;;;;2.58;1.60;;;;;;;4.28;83.64;95501.34;5072103;28;24480;-70
2022/04/19 01:38:55;;;;;;;3.50;2.10;;;;;;;4.33;82.78;95491.72;5072118;28;25068;-71
2022/04/19 01:41:21;;;;;;;2.80;1.70;;;;;;;4.29;83.12;95485.06;5071793;28;25098;-71
2022/04/19 01:43:48;;;;;;;2.60;1.83;;;;;;;4.16;83.02;95487.31;5072369;28;24426;-72
2022/04/19 01:46:16;;;;;;;3.25;2.03;;;;;;;4.02;83.41;95487.88;5072320;28;24422;-71
2022/04/19 01:48:43;;;;;;;2.72;2.22;;;;;;;3.88;85.39;95483.31;5071798;28;24431;-72
2022/04/19 01:51:10;;;;;;;2.50;1.70;;;;;;;3.78;86.53;95484.63;5071847;28;24418;-72
2022/04/19 01:53:36;;;;;;;2.47;2.00;;;;;;;3.78;87.37;95478.63;5071285;28;24944;-72
2022/04/19 01:56:06;;;;;;;3.33;2.08;;;;;;;3.78;89.01;95473.50;5072326;28;24450;-72
2022/04/19 01:58:33;;;;;;;2.45;2.05;;;;;;;3.90;86.48;95474.75;5072085;28;24956;-72
2022/04/19 02:00:59;;;;;;;4.38;2.50;;;;;;;4.07;82.42;95468.00;5071242;28;24419;-72
2022/04/19 02:03:26;;;;;;;3.00;2.50;;;;;;;3.88;83.93;95469.69;5071817;28;24792;-71
2022/04/19 02:05:52;;;;;;;3.03;2.08;;;;;;;3.72;86.44;95478.91;5071387;28;24430;-72
2022/04/19 02:08:19;;;;;;;4.68;2.78;;;;;;;3.57;87.57;95481.19;5071781;28;24823;-71
2022/04/19 02:10:46;;;;;;;6.30;2.30;;;;;;;3.53;88.45;95476.25;5071664;28;24472;-72
2022/04/19 02:13:14;;;;;;;3.60;2.65;;;;;;;3.66;85.75;95477.41;5071171;28;24414;-72
2022/04/19 02:15:42;;;;;;;2.55;2.35;;;;;;;3.59;86.68;95481.09;5071131;28;24482;-72
2022/04/19 02:18:10;;;;;;;2.83;2.08;;;;;;;3.49;87.48;95472.97;5071420;28;24461;-71
2022/04/19 02:20:36;;;;;;;3.50;2.50;;;;;;;3.58;86.91;95469.22;5071484;28;24419;-72
2022/04/19 02:23:03;;;;;;;2.95;2.17;;;;;;;3.62;87.85;95468.19;5071183;28;24410;-72
2022/04/19 02:25:30;;;;;;;3.20;2.70;;;;;;;3.53;89.68;95469.41;5071001;28;24419;-72
2022/04/19 02:27:56;;;;;;;2.75;2.38;;;;;;;3.52;90.45;95469.44;5071144;28;24430;-72
2022/04/19 02:30:24;;;;;;;4.53;2.53;;;;;;;3.54;89.66;95465.94;5070960;28;24496;-71
2022/04/19 02:32:51;;;;;;;3.97;2.95;;;;;;;3.85;85.85;95460.38;5070942;28;24414;-72
2022/04/19 02:35:20;;;;;;;6.43;2.55;;;;;;;3.63;88.34;95463.03;5070909;28;24442;-72
2022/04/19 02:37:49;;;;;;;3.53;2.47;;;;;;;3.45;90.09;95465.47;5071134;28;24962;-72
2022/04/19 02:40:17;;;;;;;3.80;2.30;;;;;;;3.46;90.56;95455.16;5070777;28;24506;-72
2022/04/19 02:42:43;;;;;;;3.63;2.42;;;;;;;3.50;88.12;95458.44;5070628;28;24837;-71
2022/04/19 02:45:10;;;;;;;3.03;2.30;;;;;;;3.44;87.96;95454.38;5070857;28;24422;-71
2022/04/19 02:47:38;;;;;;;4.07;2.40;;;;;;;3.39;88.80;95453.75;5070908;28;24419;-72
2022/04/19 02:50:05;;;;;;;3.05;2.38;;;;;;;3.35;89.25;95442.78;5070854;28;24986;-72
2022/04/19 02:52:32;;;;;;;4.00;2.20;;;;;;;3.38;88.65;95445.25;5070532;28;24480;-72
2022/04/19 02:54:58;;;;;;;2.78;1.88;;;;;;;3.43;87.89;95445.03;5070674;28;24421;-72
2022/04/19 02:57:26;;;;;;;3.30;2.38;;;;;;;3.37;86.75;95448.69;5070315;28;24469;-72
2022/04/19 02:59:53;;;;;;;4.75;2.08;;;;;;;3.29;87.23;95439.63;5070742;28;24505;-72
2022/04/19 03:02:19;;;;;;;2.40;1.88;;;;;;;3.37;84.09;95442.72;5070377;28;24429;-72
2022/04/19 03:04:47;;;;;;;2.78;2.05;;;;;;;3.18;86.76;95439.22;5070556;28;24453;-71
2022/04/19 03:07:14;;;;;;;2.78;1.95;;;;;;;3.10;87.62;95429.28;5069042;28;24422;-71
2022/04/19 03:09:41;;;;;;;2.60;2.10;;;;;;;3.12;88.08;95438.59;5068416;28;24510;-72
2022/04/19 03:12:10;;;;;;;2.75;2.00;;;;;;;3.11;87.82;95439.47;5068340;28;24999;-72
2022/04/19 03:14:37;;;;;;;2.20;2.00;;;;;;;3.21;86.28;95434.81;5068691;28;24464;-72
2022/04/19 03:17:05;;;;;;;2.72;2.15;;;;;;;3.20;85.16;95432.34;5068652;28;24499;-71
2022/04/19 03:19:32;;;;;;;2.95;2.25;;;;;;;3.02;87.47;95439.00;5068710;28;24430;-72
2022/04/19 03:22:00;;;;;;;4.43;2.13;;;;;;;2.74;90.61;95437.47;5068547;28;24415;-71
2022/04/19 03:29:54;;;;;;;3.83;2.30;;;;;;;2.61;94.34;95438.84;5070665;28;24413;-72
2022/04/19 03:32:21;;;;;;;3.20;2.15;;;;;;;2.64;95.50;95439.56;5069955;28;24500;-71
2022/04/19 03:34:47;;;;;;;3.05;2.40;;;;;;;2.72;96.09;95429.03;5070122;28;24847;-72
2022/04/19 03:37:15;;;;;;;2.80;2.08;;;;;;;2.82;95.78;95432.09;5070224;28;24500;-72
2022/04/19 03:39:42;;;;;;;2.67;2.20;;;;;;;2.92;93.11;95429.09;5070466;28;24427;-72
2022/04/19 03:42:08;;;;;;;3.75;2.35;;;;;;;2.92;93.32;95433.38;5069970;28;24982;-72
2022/04/19 03:44:35;;;;;;;3.47;2.75;;;;;;;2.91;94.06;95429.19;5070241;28;24459;-71
2022/04/19 03:47:10;;;;;;;3.60;2.75;;;;;;;2.91;93.63;95429.19;5070065;28;24422;-72
2022/04/19 03:49:38;;;;;;;3.53;2.15;;;;;;;2.78;96.27;95431.38;5070325;28;24423;-72
2022/04/19 03:52:05;;;;;;;3.42;2.25;;;;;;;2.89;96.19;95428.38;5069889;28;24940;-72
2022/04/19 03:54:34;;;;;;;4.55;2.60;;;;;;;2.98;94.01;95438.28;5061234;28;24468;-72
2022/04/19 03:57:01;;;;;;;2.58;1.73;;;;;;;3.06;89.05;95420.06;5051451;28;24459;-72
2022/04/19 03:59:28;;;;;;;4.75;2.25;;;;;;;3.01;85.83;95432.22;5050046;28;24422;-72
2022/04/19 04:01:54;;;;;;;4.90;2.30;;;;;;;2.76;87.87;95430.59;5061676;28;24476;-71
2022/04/19 04:04:21;;;;;;;3.03;2.00;;;;;;;2.63;91.51;95432.78;5070159;28;24481;-72
2022/04/19 04:06:48;;;;;;;3.50;1.90;;;;;;;2.65;92.75;95436.09;5069674;28;24986;-72
2022/04/19 04:09:14;;;;;;;3.55;2.10;;;;;;;2.69;92.84;95434.25;5070026;28;24419;-72
2022/04/19 04:11:42;;;;;;;2.20;1.80;;;;;;;2.69;92.13;95434.25;5069736;28;24423;-72
2022/04/19 04:14:08;;;;;;;1.95;1.67;;;;;;;2.81;89.74;95432.97;5063611;28;24438;-72
2022/04/19 04:16:35;;;;;;;3.55;2.10;;;;;;;2.84;88.78;95425.19;5067497;28;24821;-72
2022/04/19 04:19:02;;;;;;;2.67;1.88;;;;;;;2.85;89.64;95432.78;5073099;28;24433;-71
2022/04/19 04:21:28;;;;;;;3.40;1.98;;;;;;;2.80;89.91;95436.41;5073330;28;24415;-72
2022/04/19 04:23:55;;;;;;;3.42;1.92;;;;;;;2.80;88.68;95433.88;5073831;28;24472;-72
2022/04/19 04:26:21;;;;;;;9.80;2.50;;;;;;;2.84;87.75;95443.09;5073683;28;24437;-72
2022/04/19 04:28:49;;;;;;;4.55;2.53;;;;;;;2.64;88.30;95434.44;5073469;28;24476;-72
2022/04/19 04:31:15;;;;;;;3.10;2.33;;;;;;;2.42;91.33;95451.44;5073165;28;24422;-72
2022/04/19 04:33:42;;;;;;;2.90;2.10;;;;;;;2.28;93.23;95443.44;5073507;28;24464;-72
2022/04/19 04:36:09;;;;;;;2.50;2.30;;;;;;;2.32;94.41;95439.88;5073138;28;24500;-71
2022/04/19 04:38:35;;;;;;;2.97;2.00;;;;;;;2.42;92.12;95452.28;5073353;28;24457;-72
2022/04/19 04:41:02;;;;;;;4.20;2.33;;;;;;;2.52;91.46;95447.69;5073310;28;24461;-72
2022/04/19 04:43:28;;;;;;;3.42;2.35;;;;;;;2.51;91.27;95440.06;5073156;28;24426;-72
2022/04/19 04:51:20;;;;;;;2.75;2.25;;;;;;;2.27;96.05;95444.34;5072626;28;24406;-72
2022/04/19 04:53:47;;;;;;;4.47;2.50;;;;;;;2.33;96.39;95446.66;5072558;28;24532;-72
2022/04/19 04:56:13;;;;;;;2.90;2.53;;;;;;;2.29;96.95;95437.44;5072467;28;24471;-72
2022/04/19 04:58:40;;;;;;;3.35;2.55;;;;;;;2.31;97.23;95443.34;5073098;28;24429;-72
2022/04/19 05:01:07;;;;;;;3.17;2.38;;;;;;;2.36;97.53;95438.88;5072320;28;24410;-72
2022/04/19 05:03:34;;;;;;;3.22;2.63;;;;;;;2.46;97.52;95440.22;5072951;28;24979;-72
2022/04/19 05:06:00;;;;;;;2.80;2.25;;;;;;;2.51;97.97;95440.06;5072291;28;24434;-72
2022/04/19 05:08:27;;;;;;;3.72;2.25;;;;;;;2.61;96.20;95441.38;5072972;28;24430;-70
2022/04/19 05:10:53;;;;;;;4.03;2.75;;;;;;;2.53;97.24;95438.28;5071574;28;24788;-72
2022/04/19 05:13:20;;;;;;;2.88;2.50;;;;;;;2.79;94.84;95438.16;5072390;28;24933;-70
2022/04/19 05:15:46;;;;;;;2.93;2.40;;;;;;;2.98;94.66;95445.97;5072269;28;24971;-69
2022/04/19 05:18:14;;;;;;;3.90;2.47;;;;;;;3.03;94.03;95445.78;5072325;28;24419;-69
2022/04/19 05:20:41;;;;;;;3.03;2.42;;;;;;;2.99;94.75;95444.22;5072429;28;24529;-71
2022/04/19 05:23:07;;;;;;;3.78;2.40;;;;;;;3.00;97.14;95444.16;5071068;28;24776;-69
2022/04/19 05:25:34;;;;;;;3.13;2.35;;;;;;;3.14;96.97;95436.78;5059310;28;24431;-71
2022/04/19 05:28:00;;;;;;;3.33;2.27;;;;;;;3.32;96.86;95447.19;5068636;28;24528;-70
2022/04/19 05:30:27;;;;;;;3.53;2.60;;;;;;;3.48;95.30;95445.69;5053348;28;24473;-70
2022/04/19 05:32:53;;;;;;;7.05;2.80;;;;;;;3.54;96.82;95447.19;5063053;28;24427;-70
2022/04/19 05:35:21;;;;;;;8.98;2.78;;;;;;;3.58;97.10;95447.00;5054366;28;24820;-70
2022/04/19 05:37:48;;;;;;;3.38;2.67;;;;;;;3.67;97.14;95450.06;5067473;28;24466;-70
2022/04/19 05:40:14;;;;;;;4.47;2.77;;;;;;;3.79;98.35;95449.59;5063982;28;24665;-70
2022/04/19 05:42:40;;;;;;;4.10;2.90;;;;;;;3.98;98.31;95449.66;5061048;28;25257;-70
2022/04/19 05:45:08;;;;;;;16.37;3.60;;;;;;;4.12;97.10;95443.03;5054369;28;24431;-70
2022/04/19 05:47:34;;;;;;;11.90;3.63;;;;;;;4.16;97.42;95442.91;5058719;28;24438;-70
2022/04/19 05:50:01;;;;;;;6.18;2.85;;;;;;;4.24;97.16;95441.69;5060103;28;24509;-70
2022/04/19 05:52:29;;;;;;;3.30;2.55;;;;;;;4.31;97.37;95443.09;5051269;28;24435;-70
2022/04/19 05:54:55;;;;;;;5.88;3.20;;;;;;;4.50;94.88;95449.97;5070010;28;24438;-70
2022/04/19 05:57:21;;;;;;;6.53;3.05;;;;;;;4.55;95.11;95450.59;5060069;28;25070;-69
2022/04/19 05:59:48;;;;;;;4.40;2.80;;;;;;;4.51;90.38;95444.75;5066818;28;24435;-69
2022/04/19 06:04:59;;;;;;;3.95;2.53;;;;;;;4.00;91.49;95456.34;5052066;28;24920;-67
2022/04/19 06:07:29;;;;;;;3.75;2.33;;;;;;;3.86;92.48;95456.13;5055778;28;24439;-69
2022/04/19 06:09:56;;;;;;;3.72;2.53;;;;;;;4.08;93.11;95464.56;5051470;28;24438;-69
2022/04/19 06:12:22;;;;;;;2.78;2.38;;;;;;;4.39;91.60;95465.00;5054585;28;24434;-69
2022/04/19 06:14:49;;;;;;;4.65;2.38;;;;;;;4.61;91.22;95461.41;5061629;28;24438;-70
2022/04/19 06:17:16;;;;;;;4.93;2.78;;;;;;;4.94;89.71;95458.25;5058914;28;25046;-70
2022/04/19 06:19:44;;;;;;;3.92;2.58;;;;;;;5.03;85.58;95465.50;5060001;28;24534;-69
2022/04/19 06:22:10;;;;;;;2.97;2.50;;;;;;;4.86;86.25;95465.47;5056856;28;24443;-70
2022/04/19 06:24:38;;;;;;;6.70;2.75;;;;;;;4.86;86.89;95460.31;5057504;28;24434;-70
2022/04/19 06:27:08;;;;;;;3.60;2.27;;;;;;;4.87;86.52;95467.13;5067150;28;25036;-70
2022/04/19 06:29:34;;;;;;;5.32;2.85;;;;;;;4.90;86.27;95466.16;5065725;28;24817;-72
2022/04/19 06:32:00;;;;;;;4.30;2.70;;;;;;;4.87;86.91;95467.13;5062519;28;25065;-69
2022/04/19 06:34:27;;;;;;;4.70;2.95;;;;;;;5.03;86.17;95473.19;5065980;28;24488;-69
2022/04/19 06:36:53;;;;;;;3.95;2.90;;;;;;;5.12;86.18;95465.97;5061435;28;24479;-69
2022/04/19 06:39:20;;;;;;;3.88;2.67;;;;;;;5.15;86.39;95460.72;5060326;28;24434;-71
2022/04/19 06:41:50;;;;;;;4.45;2.95;;;;;;;5.25;85.61;95462.78;5055516;28;24442;-70
2022/04/19 06:44:17;;;;;;;4.20;2.70;;;;;;;5.43;85.58;95460.25;5052464;28;24438;-70
2022/04/19 06:46:44;;;;;;;4.90;2.85;;;;;;;5.56;84.61;95469.88;5070398;28;24488;-71
2022/04/19 06:49:12;;;;;;;3.00;2.70;;;;;;;5.76;83.30;95466.34;5069144;28;24822;-72
2022/04/19 06:51:38;;;;;;;5.22;2.75;;;;;;;5.87;83.29;95465.00;5054656;28;24442;-71
2022/04/19 06:54:05;;;;;;;5.05;2.83;;;;;;;6.41;81.10;95466.53;5069085;28;24431;-70
2022/04/19 06:56:31;;;;;;;5.10;2.83;;;;;;;6.46;78.88;95464.59;5060964;28;24435;-71
2022/04/19 06:58:59;;;;;;;3.42;2.85;;;;;;;6.70;78.75;95467.63;5067039;28;24877;-70
2022/04/19 07:01:26;;;;;;;4.88;2.70;;;;;;;7.05;78.09;95462.34;5052412;28;24792;-71
2022/04/19 07:03:52;;;;;;;5.13;2.92;;;;;;;7.11;76.25;95464.59;5065943;28;24797;-70
2022/04/19 07:06:19;;;;;;;4.43;3.03;;;;;;;7.32;75.55;95454.88;5049794;28;24465;-70
2022/04/19 07:08:45;;;;;;;6.75;2.97;;;;;;;7.52;75.23;95448.59;5061910;28;24431;-69
2022/04/19 07:11:12;;;;;;;3.80;2.80;;;;;;;7.58;73.82;95453.44;5065638;28;24478;-70
2022/04/19 07:13:39;;;;;;;3.67;2.50;;;;;;;7.63;73.41;95453.16;5050987;28;24508;-69
2022/04/19 07:16:07;;;;;;;4.63;3.00;;;;;;;7.75;73.29;95453.31;5067830;28;24438;-70
2022/04/19 07:18:33;;;;;;;6.10;2.92;;;;;;;8.14;74.36;95461.41;5066391;28;24469;-71
2022/04/19 07:26:40;;;;;;;5.03;3.15;;;;;;;9.06;68.65;95453.38;5067420;28;24476;-70
2022/04/19 07:29:07;;;;;;;2.97;2.40;;;;;;;9.14;66.55;95451.13;5062148;28;24442;-71
2022/04/19 07:31:35;;;;;;;3.65;2.70;;;;;;;9.25;67.84;95448.72;5053194;28;24480;-72
2022/04/19 07:34:02;;;;;;;3.63;2.47;;;;;;;9.88;67.43;95448.09;5066458;28;25083;-71
2022/04/19 07:36:28;;;;;;;3.95;2.60;;;;;;;10.47;66.27;95452.06;5063738;28;24929;-75
2022/04/19 07:38:57;;;;;;;4.28;2.83;;;;;;;10.83;62.51;95452.16;5060363;28;24446;-70
2022/04/19 07:41:24;;;;;;;3.40;2.80;;;;;;;10.78;60.50;95443.84;5050190;28;21040;-70
2022/04/19 07:43:51;;;;;;;4.05;2.85;;;;;;;10.80;60.77;95443.75;5061282;28;20773;-71
2022/04/19 07:46:18;;;;;;;4.65;2.92;;;;;;;11.11;61.18;95445.03;5051126;28;20775;-70
2022/04/19 07:48:47;;;;;;;3.47;2.55;;;;;;;11.32;58.92;95443.53;5049901;28;25063;-71
2022/04/19 07:51:14;;;;;;;4.15;2.75;;;;;;;11.72;58.74;95440.69;5055982;28;24485;-70
2022/04/19 07:53:41;;;;;;;4.65;2.90;;;;;;;11.78;57.02;95435.03;5063616;28;24427;-72
2022/04/19 07:56:08;;;;;;;5.32;2.70;;;;;;;11.80;58.33;95432.34;5069473;28;24490;-71
2022/04/19 07:58:34;;;;;;;4.80;2.90;;;;;;;12.20;56.74;95429.41;5053706;28;25024;-73
2022/04/19 08:01:01;;;;;;;5.07;2.88;;;;;;;12.31;57.19;95435.47;5063906;28;24785;-72
2022/04/19 08:03:27;;;;;;;3.97;2.60;;;;;;;12.57;56.86;95423.13;5072930;28;25063;-71
2022/04/19 08:05:56;;;;;;;3.70;2.90;;;;;;;12.63;52.26;95426.19;5066308;28;24517;-73
2022/04/19 08:08:22;;;;;;;8.32;2.70;;;;;;;12.77;53.77;95424.19;5069598;28;25041;-72
2022/04/19 08:10:49;;;;;;;3.72;2.92;;;;;;;13.03;53.65;95426.53;5055429;28;24462;-72
2022/04/19 08:13:16;;;;;;;3.85;2.50;;;;;;;13.29;51.88;95425.34;5056897;28;24462;-72
2022/04/19 08:15:42;;;;;;;4.53;2.70;;;;;;;13.67;52.09;95424.06;5067251;28;24438;-71
2022/04/19 08:18:13;;;;;;;2.42;2.22;;;;;;;14.16;50.35;95414.84;5060665;28;24454;-72
2022/04/19 08:20:40;;;;;;;3.03;2.42;;;;;;;14.65;45.18;95420.41;5067698;28;24860;-71
2022/04/19 08:23:08;;;;;;;5.72;2.97;;;;;;;14.92;40.46;95412.81;5060189;28;24449;-71
2022/04/19 08:25:35;;;;;;;4.75;2.58;;;;;;;15.43;48.78;95411.06;5066883;28;24473;-72
2022/04/19 08:28:01;;;;;;;3.63;2.40;;;;;;;14.36;49.27;95418.41;5070048;28;24505;-74
2022/04/19 08:30:27;;;;;;;5.20;2.50;;;;;;;14.95;40.39;95409.94;5056429;28;24445;-72
2022/04/19 08:32:54;;;;;;;2.20;2.00;;;;;;;14.76;40.63;95415.91;5062180;28;24446;-71
2022/04/19 08:35:20;;;;;;;4.23;2.30;;;;;;;14.69;38.45;95413.97;5067471;28;24504;-70
2022/04/19 08:37:47;;;;;;;3.33;2.47;;;;;;;15.30;43.62;95405.25;5071431;28;24557;-70
2022/04/19 08:40:16;;;;;;;3.03;2.05;;;;;;;15.60;41.74;95407.75;5056260;28;24443;-71
2022/04/19 08:42:43;;;;;;;2.08;1.80;;;;;;;15.66;44.08;95409.88;5060978;28;24438;-71
2022/04/19 08:45:11;;;;;;;4.05;2.05;;;;;;;15.81;41.19;95404.25;5058503;28;24431;-71
2022/04/19 08:47:39;;;;;;;2.70;2.10;;;;;;;15.72;40.87;95403.25;5063492;28;24431;-72
2022/04/19 08:50:11;;;;;;;3.03;1.95;;;;;;;15.89;38.66;95404.38;5066352;28;24442;-71
2022/04/19 08:52:39;;;;;;;3.10;1.85;;;;;;;16.00;39.26;95399.00;5061193;28;24445;-72
2022/04/19 08:57:52;;;;;;;2.80;2.00;;;;;;;16.08;38.93;95398.31;5061130;28;24509;-72
2022/04/19 09:00:22;;;;;;;3.17;2.45;;;;;;;16.16;40.21;95399.25;5052594;28;24442;-71
2022/04/19 09:02:50;;;;;;;2.22;1.85;;;;;;;16.01;39.28;95398.03;5069052;28;24446;-73
2022/04/19 09:05:18;;;;;;;3.30;2.05;;;;;;;15.86;40.36;95397.63;5066315;28;24457;-71
2022/04/19 09:07:45;;;;;;;3.38;2.28;;;;;;;15.99;40.38;95397.38;5063674;28;24456;-71
2022/04/19 09:10:15;;;;;;;2.60;1.90;;;;;;;16.07;41.91;95397.50;5067698;28;24441;-71
2022/04/19 09:13:00;;;;;;;2.67;1.97;;;;;;;16.03;38.12;95400.53;5058746;28;24435;-71
2022/04/19 09:15:33;;;;;;;3.00;2.00;;;;;;;16.31;39.15;95398.81;5061218;28;24956;-70
2022/04/19 09:18:00;;;;;;;2.83;1.90;;;;;;;15.92;38.08;95401.50;5062234;28;24454;-71
2022/04/19 09:20:27;;;;;;;2.50;1.90;;;;;;;16.44;37.24;95400.19;5064588;28;24465;-72
2022/04/19 09:23:02;;;;;;;3.30;2.00;;;;;;;16.68;40.09;95393.63;5055346;28;24438;-72
2022/04/19 09:25:29;;;;;;;2.95;2.40;;;;;;;16.30;37.54;95397.19;5064176;28;25014;-73
2022/04/19 09:27:58;;;;;;;6.07;2.30;;;;;;;15.65;36.85;95391.72;5067716;28;24442;-72
2022/04/19 09:30:26;;;;;;;2.88;2.05;;;;;;;16.25;42.77;95402.03;5072473;28;24415;-72
2022/04/19 09:33:10;;;;;;;4.90;2.63;;;;;;;16.82;38.80;95387.16;5071530;28;24475;-72
2022/04/19 09:35:38;;;;;;;4.57;2.47;;;;;;;16.40;41.00;95392.78;5059319;28;25090;-71
2022/04/19 09:38:05;;;;;;;5.43;2.30;;;;;;;16.36;38.31;95396.63;5063860;28;24451;-71
2022/04/19 09:40:34;;;;;;;4.88;2.00;;;;;;;16.50;36.15;95387.50;5052559;28;24984;-72
2022/04/19 09:43:13;;;;;;;3.80;2.10;;;;;;;16.36;37.20;95392.22;5057029;28;25082;-71
2022/04/19 09:45:54;;;;;;;2.95;2.13;;;;;;;16.34;40.99;95383.69;5058418;28;24431;-71
2022/04/19 09:48:22;;;;;;;3.00;2.30;;;;;;;16.33;40.09;95376.00;5066120;28;24422;-71
2022/04/19 09:50:51;;;;;;;3.78;2.00;;;;;;;16.55;40.76;95377.47;5052878;28;24431;-71
2022/04/19 09:53:19;;;;;;;3.35;2.00;;;;;;;16.52;37.90;95375.94;5051771;28;24438;-73
2022/04/19 09:55:49;;;;;;;3.90;2.60;;;;;;;16.58;38.40;95371.97;5063851;28;24462;-71
2022/04/19 09:58:18;;;;;;;3.15;1.80;;;;;;;16.62;38.68;95366.28;5071287;28;24447;-72
2022/04/19 10:00:47;;;;;;;3.03;2.20;;;;;;;16.63;42.17;95367.94;5052557;28;24428;-71
2022/04/19 10:08:59;;;;;;;4.32;2.38;;;;;;;16.67;41.98;95360.63;5056890;28;24481;-71
2022/04/19 10:11:27;;;;;;;3.83;2.25;;;;;;;16.36;32.71;95362.66;5063221;28;24435;-72
2022/04/19 10:13:55;;;;;;;3.67;2.00;;;;;;;16.92;36.56;95359.19;5063655;28;24469;-73
2022/04/19 10:16:22;;;;;;;3.17;2.17;;;;;;;16.92;36.79;95356.56;5055209;28;24442;-72
2022/04/19 10:18:48;;;;;;;4.00;1.83;;;;;;;17.15;38.59;95351.75;5051670;28;24530;-71
2022/04/19 10:21:19;;;;;;;2.80;2.30;;;;;;;17.26;35.75;95359.41;5051115;28;24435;-73
2022/04/19 10:23:46;;;;;;;3.15;2.40;;;;;;;16.47;38.26;95357.25;5069208;28;24450;-72
2022/04/19 10:26:15;;;;;;;2.42;2.20;;;;;;;16.91;39.94;95352.31;5071215;28;24430;-72
2022/04/19 10:28:42;;;;;;;3.13;2.03;;;;;;;16.79;35.52;95359.50;5071206;28;24948;-71
2022/04/19 10:31:11;;;;;;;6.78;2.38;;;;;;;16.49;39.38;95346.66;5054261;28;26318;-71
2022/04/19 10:33:44;;;;;;;5.43;1.93;;;;;;;16.68;37.43;95352.63;5071182;28;24415;-72
2022/04/19 10:36:15;;;;;;;2.92;2.30;;;;;;;16.82;35.27;95348.75;5059490;28;24482;-72
2022/04/19 10:38:43;;;;;;;3.40;2.00;;;;;;;16.95;40.84;95345.81;5051099;28;25006;-72
2022/04/19 10:41:10;;;;;;;2.90;1.97;;;;;;;16.87;37.68;95345.69;5050915;28;24499;-72
2022/04/19 10:43:36;;;;;;;4.73;2.20;;;;;;;16.48;38.08;95353.69;5051276;28;24816;-72
2022/04/19 10:46:21;;;;;;;2.63;1.80;;;;;;;16.55;37.17;95352.13;5051038;28;24423;-71
2022/04/19 10:49:32;;;;;;;3.30;2.03;;;;;;;16.90;35.88;95343.63;5066199;28;24442;-73
2022/04/19 10:52:00;;;;;;;4.33;2.17;;;;;;;17.09;36.49;95344.47;5045615;28;24446;-71
2022/04/19 10:55:01;;;;;;;2.27;1.83;;;;;;;17.14;33.10;95340.47;5068355;28;24835;-71
2022/04/19 11:00:25;;;;;;;2.87;2.00;;;;;;;17.34;38.63;95337.72;5050781;28;24444;-72
2022/04/19 11:03:01;;;;;;;2.85;2.17;;;;;;;17.21;34.20;95339.91;5050877;28;24457;-73
2022/04/19 11:05:44;;;;;;;2.60;1.90;;;;;;;16.93;37.70;95329.44;5054608;28;24450;-73
2022/04/19 11:08:37;;;;;;;2.72;2.03;;;;;;;16.82;35.65;95329.63;5066240;28;24518;-75
2022/04/19 11:11:23;;;;;;;4.47;1.88;;;;;;;16.76;39.30;95322.34;5034506;28;24440;-73
2022/04/19 11:14:19;;;;;;;2.83;2.15;;;;;;;16.59;32.81;95319.50;5057034;28;25037;-75
2022/04/19 11:16:49;;;;;;;4.50;2.05;;;;;;;16.85;33.30;95318.88;5049755;28;24439;-75
2022/04/19 11:19:21;;;;;;;3.85;2.60;;;;;;;16.82;36.35;95313.94;5050528;28;24538;-75
2022/04/19 11:21:51;;;;;;;4.30;2.38;;;;;;;16.45;34.47;95317.38;5050010;28;24442;-75
2022/04/19 11:24:55;;;;;;;4.47;2.63;;;;;;;16.96;35.72;95317.84;5053178;28;24451;-76
2022/04/19 11:27:22;;;;;;;3.20;2.35;;;;;;;16.96;35.81;95313.44;5059310;28;24450;-75
2022/04/19 11:29:49;;;;;;;4.32;2.30;;;;;;;17.07;38.62;95315.03;5069743;28;24468;-74
2022/04/19 11:32:21;;;;;;;3.17;2.75;;;;;;;16.93;34.87;95311.13;5068549;28;24430;-75
2022/04/19 11:35:01;;;;;;;4.47;2.30;;;;;;;16.50;36.91;95309.09;5057386;28;24557;-75
2022/04/19 11:37:28;;;;;;;2.55;1.70;;;;;;;16.09;32.04;95306.75;5059139;28;25021;-75
2022/04/19 11:48:10;;;;;;;3.90;2.67;;;;;;;15.66;33.63;95302.84;5059672;28;24426;-75
2022/04/19 11:50:37;;;;;;;3.92;2.65;;;;;;;15.56;33.74;95296.75;5058324;28;24459;-74
2022/04/19 11:53:04;;;;;;;5.97;2.38;;;;;;;15.59;33.97;95304.31;5057317;28;24435;-75
2022/04/19 11:55:31;;;;;;;3.78;2.22;;;;;;;15.47;31.63;95308.03;5059647;28;24831;-75
2022/04/19 11:58:04;;;;;;;2.88;1.73;;;;;;;15.44;35.60;95296.06;5055353;28;24442;-75
2022/04/19 12:00:31;;;;;;;2.25;1.50;;;;;;;16.36;35.89;95294.72;5059458;28;24431;-75
2022/04/19 12:02:58;;;;;;;3.70;2.20;;;;;;;16.38;36.65;95293.59;5056447;28;24533;-75
2022/04/19 12:05:25;;;;;;;2.37;1.90;;;;;;;16.39;36.02;95289.22;5064974;28;24465;-75
2022/04/19 12:07:55;;;;;;;4.35;1.80;;;;;;;16.39;35.71;95299.66;5068799;28;24525;-75
2022/04/19 12:10:22;;;;;;;2.25;1.77;;;;;;;16.31;34.81;95294.31;5051499;28;24468;-75
2022/04/19 12:12:49;;;;;;;3.47;2.28;;;;;;;16.10;31.70;95294.53;5053864;28;24430;-75
2022/04/19 12:15:37;;;;;;;2.53;1.88;;;;;;;15.79;33.16;95286.03;5068765;28;24442;-74
2022/04/19 12:18:04;;;;;;;4.00;2.17;;;;;;;15.51;31.07;95288.53;5058864;28;24465;-74
2022/04/19 12:20:41;;;;;;;2.08;1.88;;;;;;;16.29;33.23;95291.84;5059302;28;24438;-75
2022/04/19 12:23:18;;;;;;;5.05;2.17;;;;;;;16.36;33.66;95292.09;5061421;28;25031;-74
2022/04/19 12:26:01;;;;;;;2.40;1.75;;;;;;;15.65;32.01;95285.53;5058442;28;24550;-75